Time;durP1;ratioP1;P1;durP2;ratioP2;P2;SDS_P1;SDS_P2;PMS_P1;PMS_P2;Temp;Humidity;BMP_temperature;BMP_pressure;BME280_temperature;BME280_humidity;BME280_pressure;Samples;Min_cycle;Max_cycle;Signal;HPM_P1;HPM_P2
2023/01/05 00:01:11;;;;;;;40.27;25.30;;;;;;;6.08;100.00;93577.84;5093916;28;20235;-78
2023/01/05 00:03:37;;;;;;;34.03;25.00;;;;;;;6.12;100.00;93584.13;5092274;28;20235;-77
2023/01/05 00:06:09;;;;;;;39.10;25.27;;;;;;;6.21;100.00;93598.34;5091062;28;20276;-77
2023/01/05 00:08:35;;;;;;;40.07;23.83;;;;;;;6.16;100.00;93595.63;5089778;28;20216;-78
2023/01/05 00:22:30;;;;;;;42.67;25.27;;;;;;;6.24;100.00;93592.69;5091501;28;20216;-77
2023/01/05 00:24:59;;;;;;;34.07;23.60;;;;;;;6.15;100.00;93594.03;5090283;28;20215;-78
2023/01/05 00:27:26;;;;;;;33.97;23.27;;;;;;;6.10;100.00;93586.94;5091501;28;20200;-78
2023/01/05 00:29:51;;;;;;;37.23;24.03;;;;;;;5.89;100.00;93534.91;5091632;28;20970;-78
2023/01/05 00:32:17;;;;;;;40.13;25.33;;;;;;;6.11;100.00;93583.34;5090174;28;20184;-78
2023/01/05 00:34:42;;;;;;;38.03;24.10;;;;;;;6.20;100.00;93581.19;5091665;28;20220;-78
2023/01/05 00:37:07;;;;;;;34.03;23.57;;;;;;;6.14;100.00;93564.75;5089816;28;20240;-77
2023/01/05 00:39:33;;;;;;;37.37;24.53;;;;;;;6.09;100.00;93558.66;5090329;28;20217;-78
2023/01/05 00:41:58;;;;;;;35.13;23.50;;;;;;;6.21;100.00;93567.22;5091349;28;20859;-78
2023/01/05 00:44:24;;;;;;;39.10;23.20;;;;;;;6.29;100.00;93570.25;5092461;28;20220;-78
2023/01/05 00:46:49;;;;;;;33.57;23.23;;;;;;;5.96;100.00;93527.81;5091468;28;20216;-78
2023/01/05 00:49:14;;;;;;;40.53;23.17;;;;;;;6.17;100.00;93579.06;5091007;28;20279;-78
2023/01/05 00:51:40;;;;;;;30.93;23.57;;;;;;;6.09;100.00;93545.69;5090585;28;20228;-77
2023/01/05 00:54:05;;;;;;;38.00;24.17;;;;;;;6.33;100.00;93560.22;5090544;28;20239;-77
2023/01/05 00:56:31;;;;;;;33.83;24.00;;;;;;;6.39;100.00;93569.66;5090749;28;20224;-77
2023/01/05 00:58:56;;;;;;;34.30;24.70;;;;;;;6.27;100.00;93558.53;5090657;28;20185;-78
2023/01/05 01:01:21;;;;;;;31.83;24.20;;;;;;;6.26;100.00;93560.34;5091490;28;20188;-79
2023/01/05 01:03:47;;;;;;;39.50;24.10;;;;;;;6.31;100.00;93573.41;5090882;28;21655;-79
2023/01/05 01:06:13;;;;;;;33.93;23.60;;;;;;;6.05;100.00;93531.63;5090890;28;20189;-79
2023/01/05 01:08:38;;;;;;;42.77;24.43;;;;;;;6.26;100.00;93562.13;5090976;28;20203;-79
2023/01/05 01:11:08;;;;;;;36.47;24.43;;;;;;;6.27;100.00;93566.31;5089785;28;20246;-80
2023/01/05 01:13:34;;;;;;;36.43;25.07;;;;;;;6.38;100.00;93578.47;5091025;28;20196;-79
2023/01/05 01:16:07;;;;;;;37.33;25.87;;;;;;;6.38;100.00;93568.09;5087596;28;20219;-79
2023/01/05 01:18:33;;;;;;;37.70;25.00;;;;;;;6.47;100.00;93562.28;5090099;28;20201;-80
2023/01/05 01:20:58;;;;;;;33.17;23.17;;;;;;;6.30;100.00;93547.69;5088930;28;20228;-80
2023/01/05 01:23:24;;;;;;;36.30;24.03;;;;;;;6.35;100.00;93548.56;5088706;28;20298;-80
2023/01/05 01:25:49;;;;;;;32.60;23.70;;;;;;;6.30;100.00;93553.66;5090308;28;20228;-80
2023/01/05 01:28:14;;;;;;;34.53;23.90;;;;;;;6.41;100.00;93557.25;5090498;28;20268;-80
2023/01/05 01:30:40;;;;;;;33.37;24.27;;;;;;;6.45;100.00;93545.41;5089650;28;20217;-80
2023/01/05 01:33:05;;;;;;;34.27;22.53;;;;;;;6.37;100.00;93537.97;5091122;28;20236;-80
2023/01/05 01:35:30;;;;;;;33.57;22.57;;;;;;;6.35;100.00;93532.25;5089378;28;20224;-80
2023/01/05 01:37:56;;;;;;;32.10;22.30;;;;;;;6.38;100.00;93535.16;5089442;28;20196;-79
2023/01/05 01:40:21;;;;;;;32.47;23.13;;;;;;;6.32;100.00;93537.88;5089137;28;20240;-80
2023/01/05 01:42:46;;;;;;;28.83;20.43;;;;;;;6.47;100.00;93535.59;5089615;28;20210;-80
2023/01/05 01:45:20;;;;;;;30.50;22.03;;;;;;;6.45;100.00;93522.84;5089528;28;20244;-79
2023/01/05 01:47:58;;;;;;;26.37;18.97;;;;;;;6.30;100.00;93516.59;5090041;28;20204;-80
2023/01/05 01:50:23;;;;;;;31.23;22.50;;;;;;;6.32;100.00;93517.13;5088172;28;20247;-78
2023/01/05 01:52:51;;;;;;;32.77;23.40;;;;;;;6.24;100.00;93512.31;5090661;28;20177;-78
2023/01/05 01:55:18;;;;;;;34.00;23.50;;;;;;;6.26;100.00;93511.06;5090300;28;20228;-79
2023/01/05 01:57:44;;;;;;;37.37;25.37;;;;;;;6.20;100.00;93499.03;5091426;28;20189;-80
2023/01/05 02:00:13;;;;;;;36.90;24.10;;;;;;;6.11;100.00;93491.84;5087340;28;20236;-80
2023/01/05 02:02:39;;;;;;;32.83;24.13;;;;;;;6.16;100.00;93502.31;5124899;27;20193;-80
2023/01/05 02:05:09;;;;;;;35.83;23.10;;;;;;;6.21;100.00;93484.28;5088862;28;20228;-79
2023/01/05 02:07:38;;;;;;;34.13;23.03;;;;;;;6.19;100.00;93476.72;5089203;28;22096;-79
2023/01/05 02:10:05;;;;;;;35.90;23.17;;;;;;;6.29;100.00;93491.66;5085602;28;20220;-80
2023/01/05 02:12:33;;;;;;;32.43;22.67;;;;;;;6.23;100.00;93492.59;5089218;28;20252;-79
2023/01/05 02:15:13;;;;;;;33.10;21.67;;;;;;;6.20;100.00;93482.66;5090382;28;20251;-80
2023/01/05 02:18:03;;;;;;;35.40;24.03;;;;;;;6.12;100.00;93480.44;5089125;28;20192;-79
2023/01/05 02:20:55;;;;;;;31.80;20.73;;;;;;;6.09;100.00;93462.75;5089034;28;20247;-79
2023/01/05 02:23:58;;;;;;;26.83;20.60;;;;;;;6.20;100.00;93473.09;5088105;28;20176;-79
2023/01/05 02:26:33;;;;;;;27.30;21.33;;;;;;;6.15;100.00;93467.81;5087747;28;20201;-79
2023/01/05 02:29:22;;;;;;;25.93;19.43;;;;;;;6.22;100.00;93467.69;5089155;28;20192;-79
2023/01/05 02:31:57;;;;;;;30.83;22.23;;;;;;;6.18;100.00;93459.56;5089076;28;20196;-80
2023/01/05 02:34:28;;;;;;;28.70;20.63;;;;;;;6.14;100.00;93447.31;5089671;28;20223;-79
2023/01/05 02:36:59;;;;;;;31.03;20.47;;;;;;;6.16;100.00;93466.03;5088789;28;20180;-79
2023/01/05 02:39:34;;;;;;;27.17;21.10;;;;;;;6.03;100.00;93450.72;5087671;28;20224;-80
2023/01/05 02:42:09;;;;;;;32.07;22.23;;;;;;;6.08;100.00;93466.38;5089466;28;20195;-79
2023/01/05 02:44:34;;;;;;;29.60;20.03;;;;;;;6.10;100.00;93472.13;5087457;28;20675;-80
2023/01/05 02:47:03;;;;;;;30.67;21.13;;;;;;;6.23;100.00;93469.25;5089967;28;20219;-79
2023/01/05 02:49:32;;;;;;;29.90;21.77;;;;;;;6.18;100.00;93471.75;5088198;28;20232;-79
2023/01/05 02:52:01;;;;;;;30.63;21.23;;;;;;;6.23;100.00;93467.44;5088748;28;20222;-79
2023/01/05 02:54:34;;;;;;;30.20;21.90;;;;;;;6.19;100.00;93468.94;5090160;28;20220;-79
2023/01/05 02:57:45;;;;;;;33.73;21.00;;;;;;;6.13;100.00;93464.66;5087042;28;20191;-79
2023/01/05 03:00:08;;;;;;;29.60;22.20;;;;;;;6.18;100.00;93458.78;5087169;28;20232;-79
2023/01/05 03:02:34;;;;;;;27.50;20.23;;;;;;;6.18;100.00;93443.22;5089543;28;20185;-79
2023/01/05 03:05:11;;;;;;;29.13;19.67;;;;;;;6.03;100.00;93430.78;5087856;28;20221;-79
2023/01/05 03:07:39;;;;;;;29.90;21.20;;;;;;;6.23;100.00;93431.16;5089029;28;20204;-79
2023/01/05 03:15:40;;;;;;;28.90;21.00;;;;;;;6.21;100.00;93416.88;5092188;28;20236;-78
2023/01/05 03:18:11;;;;;;;32.33;20.97;;;;;;;6.39;100.00;93427.81;5093168;28;20200;-79
2023/01/05 03:20:40;;;;;;;27.23;20.33;;;;;;;6.34;100.00;93424.34;5092741;28;20255;-80
2023/01/05 03:37:17;;;;;;;32.10;20.67;;;;;;;6.15;100.00;93386.66;5092357;28;20207;-78
2023/01/05 03:39:45;;;;;;;30.43;22.50;;;;;;;5.96;100.00;93354.19;5091333;28;20235;-79
2023/01/05 03:42:12;;;;;;;29.57;20.67;;;;;;;6.22;100.00;93384.72;5091000;28;20181;-79
2023/01/05 03:44:39;;;;;;;29.90;21.60;;;;;;;6.21;100.00;93393.53;5092036;28;20225;-79
2023/01/05 03:47:04;;;;;;;37.77;23.03;;;;;;;6.18;100.00;93386.97;5092553;28;20220;-79
2023/01/05 03:49:30;;;;;;;29.73;22.00;;;;;;;6.18;100.00;93386.97;5106854;28;20244;-80
2023/01/05 03:51:55;;;;;;;31.60;22.77;;;;;;;6.25;100.00;93394.63;5092439;28;20195;-79
2023/01/05 03:54:21;;;;;;;31.90;22.43;;;;;;;6.26;100.00;93401.38;5091457;28;20246;-79
2023/01/05 03:56:46;;;;;;;35.67;23.00;;;;;;;6.27;100.00;93392.59;5092541;28;20204;-79
2023/01/05 03:59:12;;;;;;;28.43;22.43;;;;;;;6.33;100.00;93396.84;5091732;28;20296;-80
2023/01/05 04:01:37;;;;;;;28.63;21.10;;;;;;;6.25;100.00;93390.25;5091156;28;20193;-79
2023/01/05 04:04:03;;;;;;;31.67;22.43;;;;;;;6.23;100.00;93378.50;5091069;28;20222;-79
2023/01/05 04:06:28;;;;;;;29.73;21.63;;;;;;;6.08;100.00;93375.66;5091837;28;20189;-78
2023/01/05 04:08:54;;;;;;;30.27;22.43;;;;;;;6.23;100.00;93373.31;5090080;28;20276;-78
2023/01/05 04:11:21;;;;;;;36.20;22.43;;;;;;;6.17;100.00;93369.06;5091364;28;20240;-79
2023/01/05 04:13:46;;;;;;;27.40;22.07;;;;;;;6.13;100.00;93381.69;5091975;28;20247;-80
2023/01/05 04:16:12;;;;;;;27.57;20.73;;;;;;;6.16;100.00;93367.50;5091516;28;20192;-80
2023/01/05 04:18:38;;;;;;;30.83;21.80;;;;;;;6.12;100.00;93377.56;5091632;28;20228;-84
2023/01/05 04:21:04;;;;;;;31.93;20.87;;;;;;;5.94;100.00;93351.84;5090886;28;20224;-80
2023/01/05 04:23:29;;;;;;;31.77;21.23;;;;;;;6.16;100.00;93373.47;5091318;28;20204;-74
2023/01/05 04:25:55;;;;;;;31.80;21.83;;;;;;;6.15;100.00;93365.91;5090766;28;20229;-75
2023/01/05 04:28:20;;;;;;;27.67;21.03;;;;;;;6.17;100.00;93361.28;5092368;28;20208;-75
2023/01/05 04:30:50;;;;;;;28.63;21.97;;;;;;;6.12;100.00;93361.19;5090730;28;20220;-74
2023/01/05 04:33:15;;;;;;;32.30;22.40;;;;;;;6.08;100.00;93362.69;5090366;28;20180;-75
2023/01/05 04:35:41;;;;;;;32.33;21.97;;;;;;;5.95;100.00;93350.81;5090571;28;20212;-75
2023/01/05 04:38:06;;;;;;;28.43;20.43;;;;;;;5.94;100.00;93340.66;5090564;28;20189;-75
2023/01/05 04:40:32;;;;;;;32.17;22.27;;;;;;;5.89;100.00;93356.91;5091338;28;20305;-75
2023/01/05 04:42:57;;;;;;;30.53;22.43;;;;;;;5.86;100.00;93359.97;5090435;28;20185;-70
2023/01/05 04:45:22;;;;;;;27.37;22.13;;;;;;;5.95;100.00;93355.19;5090394;28;20303;-74
2023/01/05 04:47:48;;;;;;;30.80;20.87;;;;;;;5.99;100.00;93361.50;5090028;28;20216;-72
2023/01/05 04:50:13;;;;;;;29.27;21.30;;;;;;;5.89;100.00;93361.31;5089550;28;20228;-73
2023/01/05 04:52:39;;;;;;;33.57;22.60;;;;;;;5.89;100.00;93374.25;5091662;28;20180;-72
2023/01/05 04:55:05;;;;;;;33.43;21.30;;;;;;;5.87;100.00;93378.88;5089635;28;20212;-79
2023/01/05 04:57:30;;;;;;;30.27;21.37;;;;;;;5.80;100.00;93378.22;5089941;28;20185;-76
2023/01/05 04:59:55;;;;;;;27.47;20.67;;;;;;;5.79;100.00;93384.41;5089020;28;20315;-79
2023/01/05 05:02:21;;;;;;;28.53;20.87;;;;;;;5.73;100.00;93385.31;5090607;28;20207;-70
2023/01/05 05:04:47;;;;;;;34.60;20.30;;;;;;;5.86;100.00;93390.28;5089844;28;20232;-70
2023/01/05 05:07:12;;;;;;;28.03;21.90;;;;;;;5.87;100.00;93387.44;5091412;28;20212;-73
2023/01/05 05:09:37;;;;;;;27.07;19.47;;;;;;;5.98;100.00;93388.41;5091280;28;20251;-71
2023/01/05 05:12:03;;;;;;;31.27;22.07;;;;;;;6.03;100.00;93388.50;5092943;28;20208;-70
2023/01/05 05:14:28;;;;;;;33.93;22.07;;;;;;;6.06;100.00;93395.81;5092704;28;20224;-72
2023/01/05 05:16:54;;;;;;;29.90;21.73;;;;;;;5.96;100.00;93382.69;5090022;28;20185;-72
2023/01/05 05:19:19;;;;;;;33.93;21.67;;;;;;;5.96;100.00;93388.66;5089628;28;20288;-74
2023/01/05 05:21:45;;;;;;;28.67;21.33;;;;;;;6.06;100.00;93394.03;5090910;28;20185;-74
2023/01/05 05:24:11;;;;;;;32.57;21.83;;;;;;;5.80;100.00;93384.19;5090345;28;20228;-76
2023/01/05 05:26:36;;;;;;;32.50;21.93;;;;;;;6.04;100.00;93397.84;5089101;28;20185;-75
2023/01/05 05:29:01;;;;;;;32.87;21.60;;;;;;;5.94;100.00;93376.94;5088954;28;20214;-76
2023/01/05 05:31:27;;;;;;;24.27;20.57;;;;;;;6.09;100.00;93388.38;5089184;28;20189;-72
2023/01/05 05:33:52;;;;;;;29.40;20.90;;;;;;;6.00;100.00;93388.97;5089433;28;20181;-72
2023/01/05 05:36:17;;;;;;;29.20;21.60;;;;;;;6.01;100.00;93386.16;5088112;28;20299;-76
2023/01/05 05:38:43;;;;;;;29.80;22.53;;;;;;;5.69;100.00;93353.13;5087545;28;20670;-73
2023/01/05 05:41:09;;;;;;;28.67;21.63;;;;;;;5.81;100.00;93379.78;5090847;28;21046;-76
2023/01/05 05:43:35;;;;;;;29.00;22.53;;;;;;;5.53;100.00;93362.41;5088953;28;20185;-76
2023/01/05 05:46:01;;;;;;;28.97;20.93;;;;;;;5.61;100.00;93376.78;5088140;28;20777;-78
2023/01/05 05:48:26;;;;;;;26.40;21.13;;;;;;;5.34;100.00;93357.63;5084447;28;20230;-74
2023/01/05 05:50:52;;;;;;;30.37;20.13;;;;;;;5.42;100.00;93360.63;5081310;28;20247;-74
2023/01/05 05:53:17;;;;;;;28.50;20.70;;;;;;;5.21;100.00;93345.72;5087187;28;20192;-74
2023/01/05 05:55:47;;;;;;;27.27;19.57;;;;;;;5.21;100.00;93340.53;5088388;28;20299;-74
2023/01/05 05:58:12;;;;;;;25.87;19.43;;;;;;;5.03;100.00;93345.81;5087052;28;20221;-74
2023/01/05 06:00:37;;;;;;;25.03;20.30;;;;;;;4.95;100.00;93341.00;5086967;28;20224;-74
2023/01/05 06:03:03;;;;;;;30.67;19.87;;;;;;;4.95;100.00;93346.16;5088164;28;20201;-74
2023/01/05 06:05:28;;;;;;;25.13;18.37;;;;;;;4.61;100.00;93306.38;5089516;28;20231;-74
2023/01/05 06:07:53;;;;;;;30.10;21.43;;;;;;;4.73;100.00;93320.09;5087781;28;20216;-73
2023/01/05 06:10:19;;;;;;;26.13;18.73;;;;;;;4.61;100.00;93327.06;5089508;28;20232;-74
2023/01/05 06:12:44;;;;;;;24.07;19.47;;;;;;;4.70;100.00;93332.69;5087692;28;20546;-73
2023/01/05 06:15:10;;;;;;;24.93;19.83;;;;;;;4.53;100.00;93311.88;5088288;28;20228;-74
2023/01/05 06:17:35;;;;;;;22.27;19.57;;;;;;;4.59;100.00;93331.66;5087214;28;20248;-75
2023/01/05 06:20:00;;;;;;;21.90;18.53;;;;;;;4.42;100.00;93323.00;5087186;28;20252;-74
2023/01/05 06:22:26;;;;;;;21.57;17.50;;;;;;;4.37;100.00;93325.47;5088570;28;20180;-74
2023/01/05 06:24:51;;;;;;;23.13;18.00;;;;;;;4.12;100.00;93327.47;5089000;28;20224;-72
2023/01/05 06:27:16;;;;;;;21.73;17.23;;;;;;;4.21;100.00;93320.16;5088245;28;20211;-75
2023/01/05 06:29:42;;;;;;;21.53;17.27;;;;;;;4.05;100.00;93313.03;5087748;28;20232;-74
2023/01/05 06:32:07;;;;;;;19.37;17.27;;;;;;;4.31;100.00;93328.19;5090406;28;20201;-74
2023/01/05 06:34:32;;;;;;;20.23;16.60;;;;;;;4.32;100.00;93327.16;5087471;28;20224;-74
2023/01/05 06:36:58;;;;;;;17.57;15.77;;;;;;;4.37;100.00;93322.09;5089108;28;20204;-74
2023/01/05 06:39:23;;;;;;;20.37;16.37;;;;;;;4.38;100.00;93315.91;5087503;28;20235;-77
2023/01/05 06:41:48;;;;;;;20.03;17.47;;;;;;;4.36;100.00;93313.56;5089345;28;20223;-74
2023/01/05 06:44:14;;;;;;;23.00;16.77;;;;;;;4.16;100.00;93318.25;5086116;28;20228;-73
2023/01/05 06:46:39;;;;;;;19.63;17.13;;;;;;;4.19;100.00;93314.41;5087430;28;20197;-75
2023/01/05 06:49:05;;;;;;;21.00;16.87;;;;;;;4.21;100.00;93308.03;5090286;28;20233;-75
2023/01/05 06:51:30;;;;;;;21.23;16.67;;;;;;;4.32;100.00;93312.44;5090204;28;20319;-74
2023/01/05 06:53:56;;;;;;;23.83;17.87;;;;;;;4.28;100.00;93295.78;5091970;28;20185;-75
2023/01/05 06:56:21;;;;;;;20.20;16.67;;;;;;;4.43;100.00;93324.59;5091380;28;20180;-73
2023/01/05 06:58:46;;;;;;;21.83;18.57;;;;;;;4.57;100.00;93336.28;5091306;28;20982;-73
2023/01/05 07:01:12;;;;;;;24.20;18.33;;;;;;;4.59;100.00;93329.09;5091377;28;20188;-72
2023/01/05 07:03:37;;;;;;;23.73;18.53;;;;;;;4.68;100.00;93316.63;5090420;28;20222;-75
2023/01/05 07:06:03;;;;;;;25.17;19.17;;;;;;;4.90;100.00;93333.16;5090633;28;20240;-73
2023/01/05 07:08:28;;;;;;;24.03;18.63;;;;;;;4.93;100.00;93320.53;5091643;28;20220;-73
2023/01/05 07:10:54;;;;;;;26.67;20.00;;;;;;;5.26;100.00;93309.56;5089229;28;20222;-73
2023/01/05 07:13:19;;;;;;;29.20;19.23;;;;;;;5.52;100.00;93324.59;5091791;28;20193;-71
2023/01/05 07:15:44;;;;;;;27.83;20.03;;;;;;;5.65;100.00;93308.00;5091805;28;20213;-74
2023/01/05 07:18:10;;;;;;;31.63;22.90;;;;;;;5.86;100.00;93320.31;5092038;28;20275;-69
2023/01/05 07:20:37;;;;;;;29.63;21.87;;;;;;;6.09;100.00;93302.84;5091067;28;20228;-72
2023/01/05 07:23:02;;;;;;;38.30;21.00;;;;;;;6.30;100.00;93322.88;5091084;28;20196;-71
2023/01/05 07:25:30;;;;;;;31.30;22.87;;;;;;;6.11;100.00;93318.16;5090943;28;20228;-70
2023/01/05 07:27:56;;;;;;;29.70;22.20;;;;;;;6.27;100.00;93314.81;5091810;28;20228;-76
2023/01/05 07:30:21;;;;;;;36.30;22.90;;;;;;;6.30;100.00;93312.50;5089876;28;20243;-73
2023/01/05 07:32:47;;;;;;;34.90;23.87;;;;;;;6.31;100.00;93319.28;5091139;28;20188;-74
2023/01/05 07:35:12;;;;;;;35.67;24.07;;;;;;;6.32;100.00;93288.94;5091923;28;20255;-74
2023/01/05 07:37:37;;;;;;;40.80;23.97;;;;;;;6.30;100.00;93296.19;5090681;28;20218;-75
2023/01/05 07:40:03;;;;;;;33.20;22.83;;;;;;;6.13;100.00;93272.84;5090874;28;20236;-75
2023/01/05 07:42:29;;;;;;;35.40;22.23;;;;;;;6.40;100.00;93285.97;5089488;28;20192;-75
2023/01/05 07:44:54;;;;;;;33.97;23.40;;;;;;;6.49;100.00;93295.72;5089917;28;20231;-74
2023/01/05 07:47:20;;;;;;;34.67;22.77;;;;;;;6.50;100.00;93294.72;5090944;28;20247;-74
2023/01/05 07:49:45;;;;;;;35.90;23.97;;;;;;;6.32;100.00;93279.38;5089568;28;20251;-75
2023/01/05 07:52:11;;;;;;;30.47;23.00;;;;;;;6.32;100.00;93278.56;5087800;28;20187;-74
2023/01/05 07:54:36;;;;;;;29.40;22.57;;;;;;;6.23;100.00;93269.63;5088380;28;20229;-74
2023/01/05 07:57:01;;;;;;;34.73;22.43;;;;;;;6.33;100.00;93280.94;5089987;28;20991;-73
2023/01/05 07:59:27;;;;;;;29.27;22.03;;;;;;;6.38;100.00;93278.41;5088589;28;20245;-73
2023/01/05 08:01:52;;;;;;;26.90;20.40;;;;;;;6.19;100.00;93252.97;5089953;28;20184;-72
2023/01/05 08:04:17;;;;;;;30.47;20.90;;;;;;;6.30;100.00;93270.25;5087489;28;20233;-72
2023/01/05 08:06:43;;;;;;;26.90;21.23;;;;;;;6.30;99.89;93268.44;5087944;28;20204;-73
2023/01/05 08:11:52;;;;;;;23.10;18.30;;;;;;;6.74;97.74;93279.72;5088055;28;20211;-69
2023/01/05 08:14:17;;;;;;;22.17;18.93;;;;;;;6.72;97.96;93263.63;5088039;28;20228;-71
2023/01/05 08:16:43;;;;;;;20.73;16.70;;;;;;;6.72;97.67;93265.44;5089594;28;20200;-72
2023/01/05 08:19:09;;;;;;;24.27;19.47;;;;;;;6.78;98.35;93272.25;5089270;28;20221;-72
2023/01/05 08:21:34;;;;;;;27.63;19.53;;;;;;;7.05;96.26;93273.16;5088675;28;20248;-71
2023/01/05 08:24:00;;;;;;;26.27;19.80;;;;;;;7.09;96.29;93275.00;5087650;28;20185;-72
2023/01/05 08:26:25;;;;;;;25.77;19.57;;;;;;;6.97;96.60;93274.34;5089975;28;20954;-73
2023/01/05 08:28:52;;;;;;;26.57;19.73;;;;;;;6.98;96.12;93268.13;5089260;28;20188;-73
2023/01/05 08:31:26;;;;;;;27.40;22.37;;;;;;;7.11;95.94;93272.19;5087851;28;20208;-73
2023/01/05 08:33:57;;;;;;;24.63;18.17;;;;;;;7.18;94.73;93265.78;5090014;28;20185;-73
2023/01/05 08:36:23;;;;;;;24.67;19.83;;;;;;;7.23;95.38;93281.44;5088014;28;20214;-73
2023/01/05 08:38:52;;;;;;;28.30;19.97;;;;;;;7.46;95.39;93291.56;5087060;28;20244;-72
2023/01/05 08:41:23;;;;;;;21.87;19.57;;;;;;;7.35;94.97;93283.88;5087704;28;20188;-71
2023/01/05 08:43:57;;;;;;;28.60;21.03;;;;;;;7.39;94.53;93288.34;5088188;28;20353;-71
2023/01/05 08:46:25;;;;;;;32.67;22.33;;;;;;;7.40;94.72;93281.34;5086720;28;20195;-72
2023/01/05 08:48:56;;;;;;;28.03;21.07;;;;;;;7.55;93.75;93273.72;5087514;28;20205;-72
2023/01/05 08:51:22;;;;;;;24.27;18.37;;;;;;;7.50;92.87;93266.66;5046992;28;1204498;-70
2023/01/05 08:53:48;;;;;;;27.50;20.50;;;;;;;7.64;93.49;93272.28;5087812;28;20211;-71
2023/01/05 08:56:14;;;;;;;29.10;22.17;;;;;;;7.62;93.18;93269.94;5090481;28;20193;-72
2023/01/05 08:58:40;;;;;;;33.80;21.33;;;;;;;7.40;93.65;93261.38;5090242;28;20194;-71
2023/01/05 09:01:10;;;;;;;26.43;20.07;;;;;;;7.53;93.75;93260.97;5089245;28;20228;-71
2023/01/05 09:03:36;;;;;;;30.27;21.53;;;;;;;7.63;93.30;93255.91;5088562;28;20193;-71
2023/01/05 09:06:03;;;;;;;31.50;21.43;;;;;;;7.53;95.48;93240.19;5086080;28;20257;-72
2023/01/05 09:08:30;;;;;;;32.53;22.93;;;;;;;7.76;93.12;93265.91;5089807;28;20268;-71
2023/01/05 09:11:08;;;;;;;32.47;22.23;;;;;;;7.76;92.97;93241.72;5086057;28;20227;-72
2023/01/05 09:13:34;;;;;;;28.03;19.87;;;;;;;7.82;92.43;93225.94;5089518;28;20184;-73
2023/01/05 09:16:09;;;;;;;24.13;19.50;;;;;;;8.13;89.80;93229.59;5087735;28;20258;-72
2023/01/05 09:18:35;;;;;;;22.77;18.53;;;;;;;8.10;89.75;93230.88;5086364;28;20200;-72
2023/01/05 09:21:02;;;;;;;23.03;17.93;;;;;;;8.74;86.77;93210.00;5088288;28;20284;-73
2023/01/05 09:23:27;;;;;;;23.90;19.23;;;;;;;9.08;84.28;93216.41;5087162;28;20268;-72
2023/01/05 09:25:52;;;;;;;24.07;18.70;;;;;;;9.19;83.23;93202.41;5088250;28;20232;-73
2023/01/05 09:28:18;;;;;;;20.33;17.67;;;;;;;8.83;83.62;93185.84;5089530;28;21115;-73
2023/01/05 09:30:43;;;;;;;20.37;17.40;;;;;;;8.75;84.42;93188.13;5087891;28;20216;-73
2023/01/05 09:33:09;;;;;;;22.83;18.77;;;;;;;8.67;83.56;93160.00;5087791;28;20194;-73
2023/01/05 09:35:34;;;;;;;23.47;18.30;;;;;;;8.76;84.25;93166.28;5087936;28;20252;-73
2023/01/05 09:37:59;;;;;;;21.10;18.77;;;;;;;8.78;82.51;93159.00;5089412;28;20196;-73
2023/01/05 09:40:26;;;;;;;19.33;16.93;;;;;;;8.58;82.97;93164.88;5087531;28;20280;-72
2023/01/05 09:42:53;;;;;;;28.57;18.43;;;;;;;8.49;84.03;93176.00;5089183;28;20219;-73
2023/01/05 09:45:27;;;;;;;25.00;19.27;;;;;;;8.35;85.18;93174.88;5087286;28;20283;-73
2023/01/05 09:47:54;;;;;;;24.23;19.17;;;;;;;8.31;84.64;93147.81;5088809;28;20220;-72
2023/01/05 09:50:23;;;;;;;24.70;18.00;;;;;;;8.29;84.80;93155.88;5087140;28;20221;-72
2023/01/05 09:52:52;;;;;;;24.97;18.37;;;;;;;8.28;84.79;93143.13;5088157;28;20197;-72
2023/01/05 09:55:20;;;;;;;28.70;19.90;;;;;;;8.33;85.60;93140.56;5087607;28;20225;-73
2023/01/05 09:57:53;;;;;;;26.70;19.17;;;;;;;8.42;84.78;93145.00;5087871;28;20230;-73
2023/01/05 10:00:21;;;;;;;24.73;19.33;;;;;;;8.28;85.12;93136.09;5087740;28;20228;-75
2023/01/05 10:02:57;;;;;;;27.27;20.10;;;;;;;8.24;86.35;93135.03;5087342;28;20702;-74
2023/01/05 10:05:23;;;;;;;29.07;20.20;;;;;;;8.16;86.45;93112.06;5085659;28;21294;-74
2023/01/05 10:07:53;;;;;;;24.47;19.67;;;;;;;8.37;86.18;93119.00;5087713;28;20212;-76
2023/01/05 10:10:37;;;;;;;27.37;21.10;;;;;;;8.34;85.83;93126.50;5087379;28;20258;-75
2023/01/05 10:13:05;;;;;;;26.93;19.57;;;;;;;8.33;85.80;93106.75;5088899;28;20204;-74
2023/01/05 10:15:53;;;;;;;24.90;19.73;;;;;;;8.61;83.36;93111.53;5087193;28;20359;-75
2023/01/05 10:18:30;;;;;;;27.67;19.73;;;;;;;8.61;83.20;93117.53;5087408;28;20197;-74
2023/01/05 10:21:38;;;;;;;25.70;19.67;;;;;;;8.50;83.50;93109.94;5088364;28;20327;-74
2023/01/05 10:24:22;;;;;;;24.83;20.43;;;;;;;8.13;85.86;93112.56;5087098;28;20299;-75
2023/01/05 10:27:00;;;;;;;24.90;18.37;;;;;;;8.51;83.09;93116.72;5088756;28;20199;-75
2023/01/05 10:29:36;;;;;;;22.40;19.63;;;;;;;8.56;83.40;93114.91;5087709;28;20251;-75
2023/01/05 10:32:16;;;;;;;19.83;17.73;;;;;;;8.60;82.04;93112.59;5088438;28;20212;-75
2023/01/05 10:34:51;;;;;;;23.97;18.93;;;;;;;8.44;83.51;93106.53;5085637;28;20217;-74
2023/01/05 10:37:55;;;;;;;21.63;18.67;;;;;;;8.41;82.90;93095.84;5087097;28;20188;-72
2023/01/05 10:40:49;;;;;;;20.00;17.30;;;;;;;8.44;82.45;93103.13;5088248;28;20228;-73
2023/01/05 10:43:20;;;;;;;23.27;18.57;;;;;;;8.44;82.39;93103.13;5082395;28;20216;-77
2023/01/05 10:45:46;;;;;;;19.77;17.63;;;;;;;8.54;80.53;93095.38;5083655;28;20240;-78
2023/01/05 10:48:17;;;;;;;22.87;18.83;;;;;;;8.62;81.16;93102.72;5088020;28;20216;-76
2023/01/05 10:50:43;;;;;;;24.40;19.57;;;;;;;8.54;82.33;93090.19;5087856;28;20296;-75
2023/01/05 10:53:17;;;;;;;22.03;18.87;;;;;;;8.45;83.18;93081.31;5086289;28;20216;-75
2023/01/05 10:56:12;;;;;;;22.77;18.57;;;;;;;8.51;83.77;93073.28;5086582;28;20225;-78
2023/01/05 10:58:40;;;;;;;22.33;17.20;;;;;;;8.86;80.79;93072.59;5086179;28;20205;-78
2023/01/05 11:01:24;;;;;;;22.20;17.23;;;;;;;8.81;80.07;93056.97;5086646;28;20224;-76
2023/01/05 11:04:14;;;;;;;20.77;17.50;;;;;;;8.88;79.78;93057.50;5087356;28;20183;-77
2023/01/05 11:06:40;;;;;;;26.83;18.90;;;;;;;8.90;80.44;93071.06;5081432;28;20189;-76
2023/01/05 11:09:19;;;;;;;25.07;19.63;;;;;;;8.90;80.61;93068.44;5086905;28;20257;-76
2023/01/05 11:12:04;;;;;;;26.17;18.90;;;;;;;8.88;80.19;93047.09;5087187;28;20725;-76
2023/01/05 11:14:34;;;;;;;21.20;18.97;;;;;;;9.10;79.79;93058.06;5085067;28;20236;-75
2023/01/05 11:17:05;;;;;;;24.33;18.67;;;;;;;9.20;78.44;93065.88;5086256;28;20188;-75
2023/01/05 11:19:44;;;;;;;25.33;18.87;;;;;;;9.26;78.85;93059.66;5086657;28;20228;-74
2023/01/05 11:22:37;;;;;;;26.00;20.17;;;;;;;9.59;78.43;93062.53;5086901;28;20188;-75
2023/01/05 11:25:32;;;;;;;25.90;19.33;;;;;;;9.37;77.93;93022.91;5117827;28;20240;-75
2023/01/05 11:28:16;;;;;;;23.03;19.03;;;;;;;9.54;76.98;93022.69;5074270;28;20228;-75
2023/01/05 11:31:03;;;;;;;23.30;18.03;;;;;;;9.86;75.56;93054.44;5086487;28;20232;-75
2023/01/05 11:33:32;;;;;;;23.97;17.90;;;;;;;9.87;74.83;93042.97;5089105;28;20192;-76
2023/01/05 11:35:58;;;;;;;22.70;18.37;;;;;;;9.84;75.11;93050.56;5090631;28;21052;-76
2023/01/05 11:38:28;;;;;;;24.93;18.70;;;;;;;9.75;74.51;93039.84;5088946;28;20267;-76
2023/01/05 11:40:59;;;;;;;19.93;17.73;;;;;;;9.69;75.36;93046.13;5091971;28;20225;-76
2023/01/05 11:43:27;;;;;;;23.83;18.70;;;;;;;9.84;75.70;93043.50;5090835;28;20188;-76
2023/01/05 11:45:57;;;;;;;20.67;17.73;;;;;;;9.88;74.71;93046.34;5086649;28;20255;-76
2023/01/05 11:48:26;;;;;;;25.93;18.07;;;;;;;9.97;74.14;93037.75;5089993;28;20224;-75
2023/01/05 11:50:55;;;;;;;21.20;17.17;;;;;;;10.11;73.22;93033.56;5091353;28;20248;-75
2023/01/05 11:53:41;;;;;;;23.10;18.27;;;;;;;10.16;72.19;93041.38;5090433;28;20193;-75
2023/01/05 11:56:23;;;;;;;18.00;16.10;;;;;;;10.19;72.43;93027.81;5089714;28;20226;-75
2023/01/05 11:58:50;;;;;;;19.80;17.43;;;;;;;10.31;72.37;93025.69;5089815;28;20202;-74
2023/01/05 12:01:34;;;;;;;22.23;18.67;;;;;;;10.51;70.76;93038.66;5088266;28;20200;-74